East Rutherford, NJ

6:01 PM EST on December 08, 2016 (GMT -0500)
Home | | Change Station

Elev 33 ft 40.84 °N, 74.09 °W | Updated 36 seconds ago

Partly Cloudy
Partly Cloudy
37.5 °F
Feels Like 38 °F
N
0.0
Wind Variable Wind from South

Today
High -- | Low -- °F
--% Chance of Precip.
Yesterday
High -- | Low -- °F
Precip. -- in
Pressure 29.93 in
Visibility 10.0 miles
Clouds Few 6500 ft
Windchill 38 °F
Dew Point 20 °F
Humidity 50%
Rainfall 0.00 in
Snow Depth Not available.
7:08 AM 4:28 PM
Waxing Gibbous, 67% visible
METAR KTEB 082251Z 25006KT 10SM FEW065 04/M08 A2993 RMK AO2 SLP134 T00441078
Pressure 29.93 in
Visibility 10.0 miles
Clouds Few 6500 ft
Windchill 38 °F
Dew Point 20 °F
Humidity 50%
Rainfall 0.00 in
Snow Depth Not available.
7:08 AM 4:28 PM
Waxing Gibbous, 67% visible
METAR KTEB 082251Z 25006KT 10SM FEW065 04/M08 A2993 RMK AO2 SLP134 T00441078

10-Day Weather Forecast

Almanac

Astronomy

Dec. 08, 2016 Rise Set
Actual Time
Civil Twilight
Nautical Twilight
Astronomical Twilight
Moon
Length of Visible Light
Length of Day
Tomorrow will be .
, % of the Moon is Illuminated

Today's Extremes

State Highs State Lows

Community

WunderPhotos

Upload Photos

1,956,277 photos uploaded!

WunderBlog® & News

Nearby

Air Quality

  Air Quality AQ Index Pollutant
Not available.

Snow Depth

Station Depth Elevation

Earthquake Activity

City Distance Mag. Time & Date
Minimum magnitude displayed is 2.5.

Coastal Water Temperatures

Place Temperature

Stations

Nearby Weather Stations

Station Location Temp. Windchill Dew Point Humidity Wind Precip. Elev Updated Type
                   

Watches & Warnings

There are currently no watches in effect.